sensor_id;sensor_type;location;lat;lon;timestamp;temperature;humidity
24103;DHT22;12278;53.058;9.028;2023-09-19T00:01:13;16.40;99.90
24103;DHT22;12278;53.058;9.028;2023-09-19T00:05:15;16.40;99.90
24103;DHT22;12278;53.058;9.028;2023-09-19T00:09:15;16.50;99.90
24103;DHT22;12278;53.058;9.028;2023-09-19T00:13:16;16.40;99.90
24103;DHT22;12278;53.058;9.028;2023-09-19T00:17:16;16.50;99.90
24103;DHT22;12278;53.058;9.028;2023-09-19T00:21:17;16.50;99.90
24103;DHT22;12278;53.058;9.028;2023-09-19T00:25:20;16.50;99.90
24103;DHT22;12278;53.058;9.028;2023-09-19T00:29:21;16.40;99.90
24103;DHT22;12278;53.058;9.028;2023-09-19T00:33:23;16.50;99.90
24103;DHT22;12278;53.058;9.028;2023-09-19T00:37:24;16.50;99.90
24103;DHT22;12278;53.058;9.028;2023-09-19T00:41:25;16.40;99.90
24103;DHT22;12278;53.058;9.028;2023-09-19T00:45:26;16.40;99.90
24103;DHT22;12278;53.058;9.028;2023-09-19T00:49:27;16.50;99.90
24103;DHT22;12278;53.058;9.028;2023-09-19T00:53:28;16.50;99.90
24103;DHT22;12278;53.058;9.028;2023-09-19T00:57:31;16.50;99.90
24103;DHT22;12278;53.058;9.028;2023-09-19T01:01:33;16.40;99.90
24103;DHT22;12278;53.058;9.028;2023-09-19T01:05:33;16.50;99.90
24103;DHT22;12278;53.058;9.028;2023-09-19T01:09:35;16.50;99.90
24103;DHT22;12278;53.058;9.028;2023-09-19T01:17:51;16.60;99.90
24103;DHT22;12278;53.058;9.028;2023-09-19T01:22:16;16.60;99.90
24103;DHT22;12278;53.058;9.028;2023-09-19T01:30:42;16.70;99.90
24103;DHT22;12278;53.058;9.028;2023-09-19T01:35:04;16.70;99.90
24103;DHT22;12278;53.058;9.028;2023-09-19T01:39:11;16.60;99.90
24103;DHT22;12278;53.058;9.028;2023-09-19T01:48:00;15.80;99.90
24103;DHT22;12278;53.058;9.028;2023-09-19T01:56:08;15.30;99.90
24103;DHT22;12278;53.058;9.028;2023-09-19T02:00:14;15.30;99.90
24103;DHT22;12278;53.058;9.028;2023-09-19T02:04:17;15.30;99.90
24103;DHT22;12278;53.058;9.028;2023-09-19T02:08:19;15.20;99.90
24103;DHT22;12278;53.058;9.028;2023-09-19T02:12:20;15.20;99.90
24103;DHT22;12278;53.058;9.028;2023-09-19T02:16:21;15.10;99.90
24103;DHT22;12278;53.058;9.028;2023-09-19T02:20:22;15.00;99.90
24103;DHT22;12278;53.058;9.028;2023-09-19T02:24:22;15.00;99.90
24103;DHT22;12278;53.058;9.028;2023-09-19T02:28:27;14.90;99.90
24103;DHT22;12278;53.058;9.028;2023-09-19T02:32:32;14.90;99.90
24103;DHT22;12278;53.058;9.028;2023-09-19T02:36:36;14.80;99.90
24103;DHT22;12278;53.058;9.028;2023-09-19T02:40:37;14.90;99.90
24103;DHT22;12278;53.058;9.028;2023-09-19T02:44:38;14.90;99.90
24103;DHT22;12278;53.058;9.028;2023-09-19T02:48:38;14.80;99.90
24103;DHT22;12278;53.058;9.028;2023-09-19T02:52:41;14.80;99.90
24103;DHT22;12278;53.058;9.028;2023-09-19T02:56:43;14.80;99.90
24103;DHT22;12278;53.058;9.028;2023-09-19T03:00:44;14.90;99.90
24103;DHT22;12278;53.058;9.028;2023-09-19T03:04:48;14.70;99.90
24103;DHT22;12278;53.058;9.028;2023-09-19T03:08:49;14.70;99.90
24103;DHT22;12278;53.058;9.028;2023-09-19T03:12:52;14.70;99.90
24103;DHT22;12278;53.058;9.028;2023-09-19T03:16:52;14.60;99.90
24103;DHT22;12278;53.058;9.028;2023-09-19T03:20:54;14.50;99.90
24103;DHT22;12278;53.058;9.028;2023-09-19T03:24:55;14.50;99.90
24103;DHT22;12278;53.058;9.028;2023-09-19T03:28:56;14.50;99.90
24103;DHT22;12278;53.058;9.028;2023-09-19T03:32:56;14.40;99.90
24103;DHT22;12278;53.058;9.028;2023-09-19T03:36:57;14.40;99.90
24103;DHT22;12278;53.058;9.028;2023-09-19T03:40:58;14.40;99.90
24103;DHT22;12278;53.058;9.028;2023-09-19T03:44:59;14.30;99.90
24103;DHT22;12278;53.058;9.028;2023-09-19T03:49:01;14.40;99.90
24103;DHT22;12278;53.058;9.028;2023-09-19T03:53:02;14.40;99.90
24103;DHT22;12278;53.058;9.028;2023-09-19T03:57:02;14.30;99.90
24103;DHT22;12278;53.058;9.028;2023-09-19T04:01:05;14.30;99.90
24103;DHT22;12278;53.058;9.028;2023-09-19T04:05:07;14.30;99.90
24103;DHT22;12278;53.058;9.028;2023-09-19T04:09:07;14.30;99.90
24103;DHT22;12278;53.058;9.028;2023-09-19T04:13:08;14.30;99.90
24103;DHT22;12278;53.058;9.028;2023-09-19T04:17:09;14.30;99.90
24103;DHT22;12278;53.058;9.028;2023-09-19T04:21:10;14.40;99.90
24103;DHT22;12278;53.058;9.028;2023-09-19T04:25:11;14.30;99.90
24103;DHT22;12278;53.058;9.028;2023-09-19T04:29:11;14.40;99.90
24103;DHT22;12278;53.058;9.028;2023-09-19T04:33:14;14.30;99.90
24103;DHT22;12278;53.058;9.028;2023-09-19T04:37:15;14.30;99.90
24103;DHT22;12278;53.058;9.028;2023-09-19T04:41:15;14.30;99.90
24103;DHT22;12278;53.058;9.028;2023-09-19T04:45:16;14.30;99.90
24103;DHT22;12278;53.058;9.028;2023-09-19T04:49:16;14.20;99.90
24103;DHT22;12278;53.058;9.028;2023-09-19T04:53:18;14.30;99.90
24103;DHT22;12278;53.058;9.028;2023-09-19T04:57:21;14.20;99.90
24103;DHT22;12278;53.058;9.028;2023-09-19T05:01:23;14.20;99.90
24103;DHT22;12278;53.058;9.028;2023-09-19T05:05:23;14.20;99.90
24103;DHT22;12278;53.058;9.028;2023-09-19T05:09:25;14.20;99.90
24103;DHT22;12278;53.058;9.028;2023-09-19T05:13:26;14.20;99.90
24103;DHT22;12278;53.058;9.028;2023-09-19T05:17:27;14.30;99.90
24103;DHT22;12278;53.058;9.028;2023-09-19T05:21:28;14.20;99.90
24103;DHT22;12278;53.058;9.028;2023-09-19T05:25:36;14.30;99.90
24103;DHT22;12278;53.058;9.028;2023-09-19T05:29:39;14.30;99.90
24103;DHT22;12278;53.058;9.028;2023-09-19T05:33:42;14.30;99.90
24103;DHT22;12278;53.058;9.028;2023-09-19T05:37:43;14.40;99.90
24103;DHT22;12278;53.058;9.028;2023-09-19T05:41:44;14.40;99.90
24103;DHT22;12278;53.058;9.028;2023-09-19T05:45:45;14.50;99.90
24103;DHT22;12278;53.058;9.028;2023-09-19T05:49:46;14.60;99.90
24103;DHT22;12278;53.058;9.028;2023-09-19T05:53:47;14.70;99.90
24103;DHT22;12278;53.058;9.028;2023-09-19T05:57:52;14.80;99.90
24103;DHT22;12278;53.058;9.028;2023-09-19T06:01:53;14.90;99.90
24103;DHT22;12278;53.058;9.028;2023-09-19T06:05:53;15.00;99.90
24103;DHT22;12278;53.058;9.028;2023-09-19T06:09:57;15.20;99.90
24103;DHT22;12278;53.058;9.028;2023-09-19T06:13:58;15.40;99.90
24103;DHT22;12278;53.058;9.028;2023-09-19T06:18:00;15.40;99.90
24103;DHT22;12278;53.058;9.028;2023-09-19T06:22:03;15.30;99.90
24103;DHT22;12278;53.058;9.028;2023-09-19T06:26:04;15.20;99.90
24103;DHT22;12278;53.058;9.028;2023-09-19T06:30:07;15.10;99.90
24103;DHT22;12278;53.058;9.028;2023-09-19T06:34:08;15.10;99.90
24103;DHT22;12278;53.058;9.028;2023-09-19T06:38:09;15.10;99.90
24103;DHT22;12278;53.058;9.028;2023-09-19T06:42:13;15.10;99.90
24103;DHT22;12278;53.058;9.028;2023-09-19T06:46:14;15.10;99.90
24103;DHT22;12278;53.058;9.028;2023-09-19T06:50:16;15.20;99.90
24103;DHT22;12278;53.058;9.028;2023-09-19T06:54:19;15.20;99.90
24103;DHT22;12278;53.058;9.028;2023-09-19T06:58:20;15.20;99.90
24103;DHT22;12278;53.058;9.028;2023-09-19T07:02:20;15.20;99.90
24103;DHT22;12278;53.058;9.028;2023-09-19T07:06:22;15.30;99.90
24103;DHT22;12278;53.058;9.028;2023-09-19T07:10:23;15.50;99.90
24103;DHT22;12278;53.058;9.028;2023-09-19T07:14:27;15.80;99.90
24103;DHT22;12278;53.058;9.028;2023-09-19T07:18:28;15.80;99.90
24103;DHT22;12278;53.058;9.028;2023-09-19T07:22:29;15.70;99.90
24103;DHT22;12278;53.058;9.028;2023-09-19T07:26:30;15.60;99.90
24103;DHT22;12278;53.058;9.028;2023-09-19T07:30:31;16.00;99.90
24103;DHT22;12278;53.058;9.028;2023-09-19T07:34:32;16.70;99.90
24103;DHT22;12278;53.058;9.028;2023-09-19T07:38:32;16.80;99.90
24103;DHT22;12278;53.058;9.028;2023-09-19T07:42:36;16.70;99.90
24103;DHT22;12278;53.058;9.028;2023-09-19T07:46:39;16.40;99.90
24103;DHT22;12278;53.058;9.028;2023-09-19T07:50:40;16.50;99.90
24103;DHT22;12278;53.058;9.028;2023-09-19T07:54:43;17.00;99.90
24103;DHT22;12278;53.058;9.028;2023-09-19T07:58:44;17.60;99.90
24103;DHT22;12278;53.058;9.028;2023-09-19T08:02:45;17.70;99.90
24103;DHT22;12278;53.058;9.028;2023-09-19T08:06:46;17.80;99.90
24103;DHT22;12278;53.058;9.028;2023-09-19T08:10:55;18.00;99.90
24103;DHT22;12278;53.058;9.028;2023-09-19T08:14:56;18.30;99.90
24103;DHT22;12278;53.058;9.028;2023-09-19T08:18:57;18.20;99.90
24103;DHT22;12278;53.058;9.028;2023-09-19T08:22:57;18.50;99.90
24103;DHT22;12278;53.058;9.028;2023-09-19T08:26:59;18.50;99.90
24103;DHT22;12278;53.058;9.028;2023-09-19T08:31:07;18.10;99.90
24103;DHT22;12278;53.058;9.028;2023-09-19T08:35:12;18.40;99.90
24103;DHT22;12278;53.058;9.028;2023-09-19T08:39:13;18.10;99.90
24103;DHT22;12278;53.058;9.028;2023-09-19T08:43:14;18.00;99.90
24103;DHT22;12278;53.058;9.028;2023-09-19T08:47:16;18.20;99.90
24103;DHT22;12278;53.058;9.028;2023-09-19T08:51:27;18.20;99.90
24103;DHT22;12278;53.058;9.028;2023-09-19T08:55:31;18.10;99.90
24103;DHT22;12278;53.058;9.028;2023-09-19T08:59:34;18.40;99.90
24103;DHT22;12278;53.058;9.028;2023-09-19T09:03:37;18.40;99.90
24103;DHT22;12278;53.058;9.028;2023-09-19T09:07:43;18.30;99.90
24103;DHT22;12278;53.058;9.028;2023-09-19T09:11:44;18.20;99.90
24103;DHT22;12278;53.058;9.028;2023-09-19T09:15:45;18.00;99.90
24103;DHT22;12278;53.058;9.028;2023-09-19T09:19:46;18.40;99.90
24103;DHT22;12278;53.058;9.028;2023-09-19T09:23:49;18.40;99.90
24103;DHT22;12278;53.058;9.028;2023-09-19T09:28:01;18.60;99.90
24103;DHT22;12278;53.058;9.028;2023-09-19T09:32:19;18.80;99.90
24103;DHT22;12278;53.058;9.028;2023-09-19T09:36:41;18.80;99.90
24103;DHT22;12278;53.058;9.028;2023-09-19T09:40:49;19.00;99.90
24103;DHT22;12278;53.058;9.028;2023-09-19T09:45:20;19.00;99.90
24103;DHT22;12278;53.058;9.028;2023-09-19T09:49:33;19.20;99.90
24103;DHT22;12278;53.058;9.028;2023-09-19T09:53:37;19.40;99.90
24103;DHT22;12278;53.058;9.028;2023-09-19T09:57:38;19.20;99.90
24103;DHT22;12278;53.058;9.028;2023-09-19T10:01:48;19.40;99.90
24103;DHT22;12278;53.058;9.028;2023-09-19T10:05:53;19.30;99.90
24103;DHT22;12278;53.058;9.028;2023-09-19T10:09:55;18.80;99.90
24103;DHT22;12278;53.058;9.028;2023-09-19T10:14:05;18.50;99.90
24103;DHT22;12278;53.058;9.028;2023-09-19T10:18:10;18.40;99.90
24103;DHT22;12278;53.058;9.028;2023-09-19T10:22:19;18.20;99.90
24103;DHT22;12278;53.058;9.028;2023-09-19T10:26:23;18.40;99.90
24103;DHT22;12278;53.058;9.028;2023-09-19T10:30:25;18.30;99.90
24103;DHT22;12278;53.058;9.028;2023-09-19T10:34:29;18.10;99.90
24103;DHT22;12278;53.058;9.028;2023-09-19T10:38:32;18.10;99.90
24103;DHT22;12278;53.058;9.028;2023-09-19T10:42:37;18.00;99.90
24103;DHT22;12278;53.058;9.028;2023-09-19T10:46:38;18.20;99.90
24103;DHT22;12278;53.058;9.028;2023-09-19T10:54:53;18.30;99.90
24103;DHT22;12278;53.058;9.028;2023-09-19T10:59:18;18.30;99.90
24103;DHT22;12278;53.058;9.028;2023-09-19T11:03:20;18.90;99.90
24103;DHT22;12278;53.058;9.028;2023-09-19T11:07:30;18.80;99.90
24103;DHT22;12278;53.058;9.028;2023-09-19T11:24:27;19.30;99.90
24103;DHT22;12278;53.058;9.028;2023-09-19T11:28:29;19.10;99.90
24103;DHT22;12278;53.058;9.028;2023-09-19T11:41:38;19.70;99.90
24103;DHT22;12278;53.058;9.028;2023-09-19T11:49:52;19.70;99.90
24103;DHT22;12278;53.058;9.028;2023-09-19T11:53:55;19.60;99.90
24103;DHT22;12278;53.058;9.028;2023-09-19T11:57:57;19.40;99.90
24103;DHT22;12278;53.058;9.028;2023-09-19T12:02:03;19.70;99.90
24103;DHT22;12278;53.058;9.028;2023-09-19T12:06:11;19.70;99.90
24103;DHT22;12278;53.058;9.028;2023-09-19T12:10:15;20.10;99.90
24103;DHT22;12278;53.058;9.028;2023-09-19T12:14:22;19.90;99.90
24103;DHT22;12278;53.058;9.028;2023-09-19T12:18:30;19.70;99.90
24103;DHT22;12278;53.058;9.028;2023-09-19T12:22:45;19.30;99.90
24103;DHT22;12278;53.058;9.028;2023-09-19T12:26:46;19.40;99.90
24103;DHT22;12278;53.058;9.028;2023-09-19T12:30:48;19.50;99.90
24103;DHT22;12278;53.058;9.028;2023-09-19T12:34:53;19.40;99.90
24103;DHT22;12278;53.058;9.028;2023-09-19T12:38:55;19.80;99.90
24103;DHT22;12278;53.058;9.028;2023-09-19T12:42:57;20.00;99.90
24103;DHT22;12278;53.058;9.028;2023-09-19T12:46:59;20.10;99.90
24103;DHT22;12278;53.058;9.028;2023-09-19T12:51:06;20.20;99.90
24103;DHT22;12278;53.058;9.028;2023-09-19T12:55:08;20.00;99.90
24103;DHT22;12278;53.058;9.028;2023-09-19T12:59:29;19.60;99.90
24103;DHT22;12278;53.058;9.028;2023-09-19T13:03:31;19.80;99.90
24103;DHT22;12278;53.058;9.028;2023-09-19T13:07:42;19.80;99.90
24103;DHT22;12278;53.058;9.028;2023-09-19T13:11:48;19.70;99.90
24103;DHT22;12278;53.058;9.028;2023-09-19T13:15:53;20.40;99.90
24103;DHT22;12278;53.058;9.028;2023-09-19T13:19:54;20.30;99.90
24103;DHT22;12278;53.058;9.028;2023-09-19T13:24:17;20.20;99.90
24103;DHT22;12278;53.058;9.028;2023-09-19T13:28:18;20.10;99.90
24103;DHT22;12278;53.058;9.028;2023-09-19T13:32:19;20.00;99.90
24103;DHT22;12278;53.058;9.028;2023-09-19T13:36:19;20.00;99.90
24103;DHT22;12278;53.058;9.028;2023-09-19T13:40:20;20.30;99.90
24103;DHT22;12278;53.058;9.028;2023-09-19T13:44:21;20.60;99.90
24103;DHT22;12278;53.058;9.028;2023-09-19T13:48:21;20.60;99.90
24103;DHT22;12278;53.058;9.028;2023-09-19T13:52:22;21.30;99.90
24103;DHT22;12278;53.058;9.028;2023-09-19T13:56:23;22.40;99.90
24103;DHT22;12278;53.058;9.028;2023-09-19T14:00:25;22.10;99.90
24103;DHT22;12278;53.058;9.028;2023-09-19T14:04:25;21.20;99.90
24103;DHT22;12278;53.058;9.028;2023-09-19T14:08:27;20.40;99.90
24103;DHT22;12278;53.058;9.028;2023-09-19T14:12:28;20.00;99.90
24103;DHT22;12278;53.058;9.028;2023-09-19T14:16:29;19.70;99.90
24103;DHT22;12278;53.058;9.028;2023-09-19T14:20:31;19.60;99.90
24103;DHT22;12278;53.058;9.028;2023-09-19T14:24:32;19.80;99.90
24103;DHT22;12278;53.058;9.028;2023-09-19T14:28:33;20.20;99.90
24103;DHT22;12278;53.058;9.028;2023-09-19T14:32:36;20.40;99.90
24103;DHT22;12278;53.058;9.028;2023-09-19T14:36:38;20.80;99.90
24103;DHT22;12278;53.058;9.028;2023-09-19T14:40:39;20.40;99.90
24103;DHT22;12278;53.058;9.028;2023-09-19T14:44:40;19.90;99.90
24103;DHT22;12278;53.058;9.028;2023-09-19T14:48:40;19.50;99.90
24103;DHT22;12278;53.058;9.028;2023-09-19T14:52:41;19.30;99.90
24103;DHT22;12278;53.058;9.028;2023-09-19T14:56:42;19.20;99.90
24103;DHT22;12278;53.058;9.028;2023-09-19T15:00:42;19.20;99.90
24103;DHT22;12278;53.058;9.028;2023-09-19T15:04:45;19.30;99.90
24103;DHT22;12278;53.058;9.028;2023-09-19T15:08:48;19.30;99.90
24103;DHT22;12278;53.058;9.028;2023-09-19T15:12:48;19.30;99.90
24103;DHT22;12278;53.058;9.028;2023-09-19T15:16:49;19.10;99.90
24103;DHT22;12278;53.058;9.028;2023-09-19T15:20:49;19.10;99.90
24103;DHT22;12278;53.058;9.028;2023-09-19T15:24:51;19.10;99.90
24103;DHT22;12278;53.058;9.028;2023-09-19T15:28:52;19.10;99.90
24103;DHT22;12278;53.058;9.028;2023-09-19T15:32:54;19.10;99.90
24103;DHT22;12278;53.058;9.028;2023-09-19T15:36:55;19.10;99.90
24103;DHT22;12278;53.058;9.028;2023-09-19T15:40:55;19.10;99.90
24103;DHT22;12278;53.058;9.028;2023-09-19T15:44:58;19.00;99.90
24103;DHT22;12278;53.058;9.028;2023-09-19T15:49:01;19.00;99.90
24103;DHT22;12278;53.058;9.028;2023-09-19T15:53:04;19.00;99.90
24103;DHT22;12278;53.058;9.028;2023-09-19T15:57:05;19.10;99.90
24103;DHT22;12278;53.058;9.028;2023-09-19T16:01:06;19.10;99.90
24103;DHT22;12278;53.058;9.028;2023-09-19T16:05:10;18.90;99.90
24103;DHT22;12278;53.058;9.028;2023-09-19T16:09:11;18.90;99.90
24103;DHT22;12278;53.058;9.028;2023-09-19T16:13:11;18.90;99.90
24103;DHT22;12278;53.058;9.028;2023-09-19T16:17:13;18.80;99.90
24103;DHT22;12278;53.058;9.028;2023-09-19T16:21:15;18.80;99.90
24103;DHT22;12278;53.058;9.028;2023-09-19T16:25:17;18.80;99.90
24103;DHT22;12278;53.058;9.028;2023-09-19T16:29:18;18.80;99.90
24103;DHT22;12278;53.058;9.028;2023-09-19T16:33:18;18.80;99.90
24103;DHT22;12278;53.058;9.028;2023-09-19T16:37:19;18.80;99.90
24103;DHT22;12278;53.058;9.028;2023-09-19T16:41:20;18.80;99.90
24103;DHT22;12278;53.058;9.028;2023-09-19T16:45:20;18.80;99.90
24103;DHT22;12278;53.058;9.028;2023-09-19T16:49:22;18.70;99.90
24103;DHT22;12278;53.058;9.028;2023-09-19T16:53:23;18.70;99.90
24103;DHT22;12278;53.058;9.028;2023-09-19T16:57:23;18.80;99.90
24103;DHT22;12278;53.058;9.028;2023-09-19T17:01:24;18.80;99.90
24103;DHT22;12278;53.058;9.028;2023-09-19T17:05:25;18.80;99.90
24103;DHT22;12278;53.058;9.028;2023-09-19T17:09:27;18.70;99.90
24103;DHT22;12278;53.058;9.028;2023-09-19T17:13:28;18.70;99.90
24103;DHT22;12278;53.058;9.028;2023-09-19T17:17:30;18.70;99.90
24103;DHT22;12278;53.058;9.028;2023-09-19T17:21:31;18.70;99.90
24103;DHT22;12278;53.058;9.028;2023-09-19T17:25:32;18.60;99.90
24103;DHT22;12278;53.058;9.028;2023-09-19T17:29:33;18.70;99.90
24103;DHT22;12278;53.058;9.028;2023-09-19T17:33:34;18.70;99.90
24103;DHT22;12278;53.058;9.028;2023-09-19T17:37:34;18.60;99.90
24103;DHT22;12278;53.058;9.028;2023-09-19T17:41:35;18.60;99.90
24103;DHT22;12278;53.058;9.028;2023-09-19T17:45:36;18.70;99.90
24103;DHT22;12278;53.058;9.028;2023-09-19T17:49:36;18.70;99.90
24103;DHT22;12278;53.058;9.028;2023-09-19T17:53:38;18.60;99.90
24103;DHT22;12278;53.058;9.028;2023-09-19T17:57:40;18.60;99.90
24103;DHT22;12278;53.058;9.028;2023-09-19T18:01:42;18.60;99.90
24103;DHT22;12278;53.058;9.028;2023-09-19T18:05:44;18.70;99.90
24103;DHT22;12278;53.058;9.028;2023-09-19T18:09:45;18.60;99.90
24103;DHT22;12278;53.058;9.028;2023-09-19T18:13:47;18.60;99.90
24103;DHT22;12278;53.058;9.028;2023-09-19T18:17:52;18.60;99.90
24103;DHT22;12278;53.058;9.028;2023-09-19T18:21:54;18.50;99.90
24103;DHT22;12278;53.058;9.028;2023-09-19T18:25:59;18.60;99.90
24103;DHT22;12278;53.058;9.028;2023-09-19T18:30:01;18.60;99.90
24103;DHT22;12278;53.058;9.028;2023-09-19T18:34:01;18.60;99.90
24103;DHT22;12278;53.058;9.028;2023-09-19T18:38:02;18.70;99.90
24103;DHT22;12278;53.058;9.028;2023-09-19T18:42:04;18.70;99.90
24103;DHT22;12278;53.058;9.028;2023-09-19T18:46:05;18.70;99.90
24103;DHT22;12278;53.058;9.028;2023-09-19T18:50:09;18.70;99.90
24103;DHT22;12278;53.058;9.028;2023-09-19T18:54:10;18.70;99.90
24103;DHT22;12278;53.058;9.028;2023-09-19T18:58:13;18.70;99.90
24103;DHT22;12278;53.058;9.028;2023-09-19T19:02:14;18.70;99.90
24103;DHT22;12278;53.058;9.028;2023-09-19T19:06:15;18.70;99.90
24103;DHT22;12278;53.058;9.028;2023-09-19T19:10:17;18.70;99.90
24103;DHT22;12278;53.058;9.028;2023-09-19T19:14:20;18.70;99.90
24103;DHT22;12278;53.058;9.028;2023-09-19T19:18:22;18.70;99.90
24103;DHT22;12278;53.058;9.028;2023-09-19T19:22:29;18.60;99.90
24103;DHT22;12278;53.058;9.028;2023-09-19T19:26:30;18.60;99.90
24103;DHT22;12278;53.058;9.028;2023-09-19T19:30:31;18.60;99.90
24103;DHT22;12278;53.058;9.028;2023-09-19T19:34:33;18.60;99.90
24103;DHT22;12278;53.058;9.028;2023-09-19T19:38:34;18.60;99.90
24103;DHT22;12278;53.058;9.028;2023-09-19T19:42:37;18.60;99.90
24103;DHT22;12278;53.058;9.028;2023-09-19T19:46:38;18.60;99.90
24103;DHT22;12278;53.058;9.028;2023-09-19T19:50:38;18.60;99.90
24103;DHT22;12278;53.058;9.028;2023-09-19T19:54:41;18.50;99.90
24103;DHT22;12278;53.058;9.028;2023-09-19T19:58:42;18.50;99.90
24103;DHT22;12278;53.058;9.028;2023-09-19T20:02:44;18.40;99.90
24103;DHT22;12278;53.058;9.028;2023-09-19T20:06:45;18.40;99.90
24103;DHT22;12278;53.058;9.028;2023-09-19T20:10:46;18.40;99.90
24103;DHT22;12278;53.058;9.028;2023-09-19T20:14:47;18.40;99.90
24103;DHT22;12278;53.058;9.028;2023-09-19T20:18:47;18.40;99.90
24103;DHT22;12278;53.058;9.028;2023-09-19T20:22:48;18.50;99.90
24103;DHT22;12278;53.058;9.028;2023-09-19T20:26:49;18.50;99.90
24103;DHT22;12278;53.058;9.028;2023-09-19T20:30:50;18.40;99.90
24103;DHT22;12278;53.058;9.028;2023-09-19T20:34:50;18.40;99.90
24103;DHT22;12278;53.058;9.028;2023-09-19T20:38:51;18.40;99.90
24103;DHT22;12278;53.058;9.028;2023-09-19T20:42:54;18.40;99.90
24103;DHT22;12278;53.058;9.028;2023-09-19T20:46:54;18.40;99.90
24103;DHT22;12278;53.058;9.028;2023-09-19T20:50:55;18.40;99.90
24103;DHT22;12278;53.058;9.028;2023-09-19T20:54:56;18.40;99.90
24103;DHT22;12278;53.058;9.028;2023-09-19T20:58:56;18.40;99.90
24103;DHT22;12278;53.058;9.028;2023-09-19T21:02:57;18.30;99.90
24103;DHT22;12278;53.058;9.028;2023-09-19T21:06:58;18.30;99.90
24103;DHT22;12278;53.058;9.028;2023-09-19T21:11:09;18.20;99.90
24103;DHT22;12278;53.058;9.028;2023-09-19T21:15:09;18.20;99.90
24103;DHT22;12278;53.058;9.028;2023-09-19T21:19:10;18.20;99.90
24103;DHT22;12278;53.058;9.028;2023-09-19T21:23:11;18.10;99.90
24103;DHT22;12278;53.058;9.028;2023-09-19T21:27:14;18.20;99.90
24103;DHT22;12278;53.058;9.028;2023-09-19T21:31:15;18.20;99.90
24103;DHT22;12278;53.058;9.028;2023-09-19T21:35:15;18.20;99.90
24103;DHT22;12278;53.058;9.028;2023-09-19T21:39:17;18.20;99.90
24103;DHT22;12278;53.058;9.028;2023-09-19T21:43:18;18.10;99.90
24103;DHT22;12278;53.058;9.028;2023-09-19T21:47:18;18.10;99.90
24103;DHT22;12278;53.058;9.028;2023-09-19T21:51:20;18.00;99.90
24103;DHT22;12278;53.058;9.028;2023-09-19T21:55:28;18.10;99.90
24103;DHT22;12278;53.058;9.028;2023-09-19T21:59:28;18.10;99.90
24103;DHT22;12278;53.058;9.028;2023-09-19T22:03:29;18.10;99.90
24103;DHT22;12278;53.058;9.028;2023-09-19T22:07:31;18.10;99.90
24103;DHT22;12278;53.058;9.028;2023-09-19T22:11:32;18.10;99.90
24103;DHT22;12278;53.058;9.028;2023-09-19T22:15:34;18.10;99.90
24103;DHT22;12278;53.058;9.028;2023-09-19T22:19:42;18.20;99.90
24103;DHT22;12278;53.058;9.028;2023-09-19T22:23:44;18.20;99.90
24103;DHT22;12278;53.058;9.028;2023-09-19T22:27:45;18.20;99.90
24103;DHT22;12278;53.058;9.028;2023-09-19T22:31:46;18.10;99.90
24103;DHT22;12278;53.058;9.028;2023-09-19T22:35:47;18.10;99.90
24103;DHT22;12278;53.058;9.028;2023-09-19T22:39:50;18.10;99.90
24103;DHT22;12278;53.058;9.028;2023-09-19T22:43:51;18.10;99.90
24103;DHT22;12278;53.058;9.028;2023-09-19T22:47:55;18.10;99.90
24103;DHT22;12278;53.058;9.028;2023-09-19T22:51:58;18.10;99.90
24103;DHT22;12278;53.058;9.028;2023-09-19T22:56:00;18.10;99.90
24103;DHT22;12278;53.058;9.028;2023-09-19T23:00:02;18.10;99.90
24103;DHT22;12278;53.058;9.028;2023-09-19T23:04:04;18.10;99.90
24103;DHT22;12278;53.058;9.028;2023-09-19T23:08:11;18.10;99.90
24103;DHT22;12278;53.058;9.028;2023-09-19T23:12:12;18.10;99.90
24103;DHT22;12278;53.058;9.028;2023-09-19T23:16:20;18.10;99.90
24103;DHT22;12278;53.058;9.028;2023-09-19T23:20:28;18.10;99.90
24103;DHT22;12278;53.058;9.028;2023-09-19T23:24:36;18.00;99.90
24103;DHT22;12278;53.058;9.028;2023-09-19T23:28:38;18.00;99.90
24103;DHT22;12278;53.058;9.028;2023-09-19T23:32:43;18.00;99.90
24103;DHT22;12278;53.058;9.028;2023-09-19T23:36:44;18.00;99.90
24103;DHT22;12278;53.058;9.028;2023-09-19T23:40:49;18.00;99.90
24103;DHT22;12278;53.058;9.028;2023-09-19T23:44:53;18.00;99.90
24103;DHT22;12278;53.058;9.028;2023-09-19T23:48:55;17.90;99.90
24103;DHT22;12278;53.058;9.028;2023-09-19T23:52:56;17.90;99.90
24103;DHT22;12278;53.058;9.028;2023-09-19T23:56:56;17.80;99.90
